sensor_id;sensor_type;location;lat;lon;timestamp;pressure;altitude;pressure_sealevel;temperature;humidity
4346;BME280;2186;49.866;7.986;2023-03-18T00:00:09;99773.91;;;10.06;100.00
4346;BME280;2186;49.866;7.986;2023-03-18T00:02:37;99769.56;;;10.03;100.00
4346;BME280;2186;49.866;7.986;2023-03-18T00:05:06;99772.63;;;9.91;100.00
4346;BME280;2186;49.866;7.986;2023-03-18T00:07:35;99767.28;;;9.93;100.00
4346;BME280;2186;49.866;7.986;2023-03-18T00:10:03;99767.88;;;10.01;100.00
4346;BME280;2186;49.866;7.986;2023-03-18T00:12:30;99762.97;;;10.14;100.00
4346;BME280;2186;49.866;7.986;2023-03-18T00:14:58;99768.31;;;10.38;100.00
4346;BME280;2186;49.866;7.986;2023-03-18T00:17:25;99765.75;;;10.10;100.00
4346;BME280;2186;49.866;7.986;2023-03-18T00:19:51;99778.09;;;10.12;100.00
4346;BME280;2186;49.866;7.986;2023-03-18T00:22:18;99766.63;;;10.11;100.00
4346;BME280;2186;49.866;7.986;2023-03-18T00:24:45;99777.41;;;10.06;100.00
4346;BME280;2186;49.866;7.986;2023-03-18T00:27:11;99774.25;;;9.95;100.00
4346;BME280;2186;49.866;7.986;2023-03-18T00:29:38;99776.84;;;9.97;100.00
4346;BME280;2186;49.866;7.986;2023-03-18T00:32:05;99785.56;;;10.02;100.00
4346;BME280;2186;49.866;7.986;2023-03-18T00:34:32;99784.47;;;10.07;100.00
4346;BME280;2186;49.866;7.986;2023-03-18T00:36:58;99790.53;;;10.11;100.00
4346;BME280;2186;49.866;7.986;2023-03-18T00:39:25;99778.69;;;10.21;100.00
4346;BME280;2186;49.866;7.986;2023-03-18T00:41:55;99786.13;;;10.10;100.00
4346;BME280;2186;49.866;7.986;2023-03-18T00:44:22;99790.69;;;10.06;100.00
4346;BME280;2186;49.866;7.986;2023-03-18T00:46:50;99791.97;;;9.95;100.00
4346;BME280;2186;49.866;7.986;2023-03-18T00:49:17;99795.19;;;10.04;100.00
4346;BME280;2186;49.866;7.986;2023-03-18T00:51:44;99787.81;;;9.88;100.00
4346;BME280;2186;49.866;7.986;2023-03-18T00:54:12;99796.25;;;9.99;100.00
4346;BME280;2186;49.866;7.986;2023-03-18T00:56:43;99797.13;;;9.99;100.00
4346;BME280;2186;49.866;7.986;2023-03-18T00:59:09;99787.47;;;9.97;100.00
4346;BME280;2186;49.866;7.986;2023-03-18T01:01:36;99787.06;;;9.83;100.00
4346;BME280;2186;49.866;7.986;2023-03-18T01:04:04;99794.75;;;9.92;100.00
4346;BME280;2186;49.866;7.986;2023-03-18T01:06:33;99790.13;;;9.97;100.00
4346;BME280;2186;49.866;7.986;2023-03-18T01:09:00;99785.56;;;10.02;100.00
4346;BME280;2186;49.866;7.986;2023-03-18T01:11:27;99785.63;;;9.99;100.00
4346;BME280;2186;49.866;7.986;2023-03-18T01:13:54;99781.47;;;9.92;100.00
4346;BME280;2186;49.866;7.986;2023-03-18T01:16:22;99779.44;;;9.98;100.00
4346;BME280;2186;49.866;7.986;2023-03-18T01:18:48;99770.13;;;9.87;100.00
4346;BME280;2186;49.866;7.986;2023-03-18T01:21:15;99759.97;;;9.73;100.00
4346;BME280;2186;49.866;7.986;2023-03-18T01:23:43;99773.91;;;9.79;100.00
4346;BME280;2186;49.866;7.986;2023-03-18T01:26:10;99772.78;;;9.87;100.00
4346;BME280;2186;49.866;7.986;2023-03-18T01:28:37;99771.44;;;10.00;100.00
4346;BME280;2186;49.866;7.986;2023-03-18T01:31:04;99767.03;;;9.99;100.00
4346;BME280;2186;49.866;7.986;2023-03-18T01:33:31;99767.56;;;9.84;100.00
4346;BME280;2186;49.866;7.986;2023-03-18T01:35:59;99765.03;;;9.80;100.00
4346;BME280;2186;49.866;7.986;2023-03-18T01:38:28;99767.31;;;9.91;100.00
4346;BME280;2186;49.866;7.986;2023-03-18T01:40:59;99762.56;;;10.01;100.00
4346;BME280;2186;49.866;7.986;2023-03-18T01:43:32;99755.72;;;9.94;100.00
4346;BME280;2186;49.866;7.986;2023-03-18T01:46:38;99759.13;;;9.97;100.00
4346;BME280;2186;49.866;7.986;2023-03-18T01:54:28;99752.47;;;9.86;100.00
4346;BME280;2186;49.866;7.986;2023-03-18T01:56:56;99759.56;;;9.85;100.00
4346;BME280;2186;49.866;7.986;2023-03-18T01:59:25;99755.97;;;9.86;100.00
4346;BME280;2186;49.866;7.986;2023-03-18T02:02:04;99753.31;;;9.86;100.00
4346;BME280;2186;49.866;7.986;2023-03-18T02:04:38;99752.38;;;9.89;100.00
4346;BME280;2186;49.866;7.986;2023-03-18T02:07:05;99738.06;;;9.93;100.00
4346;BME280;2186;49.866;7.986;2023-03-18T02:09:33;99744.72;;;9.79;100.00
4346;BME280;2186;49.866;7.986;2023-03-18T02:12:00;99750.72;;;9.85;100.00
4346;BME280;2186;49.866;7.986;2023-03-18T02:14:27;99749.72;;;9.89;100.00
4346;BME280;2186;49.866;7.986;2023-03-18T02:17:07;99754.09;;;9.90;100.00
4346;BME280;2186;49.866;7.986;2023-03-18T02:19:45;99765.47;;;9.93;100.00
4346;BME280;2186;49.866;7.986;2023-03-18T02:22:35;99760.06;;;9.96;100.00
4346;BME280;2186;49.866;7.986;2023-03-18T02:25:35;99765.31;;;9.98;100.00
4346;BME280;2186;49.866;7.986;2023-03-18T02:28:14;99778.75;;;9.93;100.00
4346;BME280;2186;49.866;7.986;2023-03-18T02:30:46;99796.63;;;9.88;100.00
4346;BME280;2186;49.866;7.986;2023-03-18T02:33:16;99798.31;;;9.91;100.00
4346;BME280;2186;49.866;7.986;2023-03-18T02:35:45;99802.81;;;9.89;100.00
4346;BME280;2186;49.866;7.986;2023-03-18T02:38:12;99792.16;;;9.90;100.00
4346;BME280;2186;49.866;7.986;2023-03-18T02:40:40;99802.91;;;9.86;100.00
4346;BME280;2186;49.866;7.986;2023-03-18T02:43:21;99795.66;;;9.64;100.00
4346;BME280;2186;49.866;7.986;2023-03-18T02:48:31;99797.13;;;9.46;100.00
4346;BME280;2186;49.866;7.986;2023-03-18T02:50:59;99784.69;;;9.48;100.00
4346;BME280;2186;49.866;7.986;2023-03-18T02:53:26;99780.66;;;9.63;100.00
4346;BME280;2186;49.866;7.986;2023-03-18T02:55:53;99785.91;;;9.65;100.00
4346;BME280;2186;49.866;7.986;2023-03-18T02:58:19;99790.34;;;9.64;100.00
4346;BME280;2186;49.866;7.986;2023-03-18T03:00:45;99781.63;;;9.61;100.00
4346;BME280;2186;49.866;7.986;2023-03-18T03:03:12;99791.22;;;9.65;100.00
4346;BME280;2186;49.866;7.986;2023-03-18T03:05:39;99794.78;;;9.64;100.00
4346;BME280;2186;49.866;7.986;2023-03-18T03:08:05;99792.19;;;9.62;100.00
4346;BME280;2186;49.866;7.986;2023-03-18T03:10:32;99788.66;;;9.62;100.00
4346;BME280;2186;49.866;7.986;2023-03-18T03:12:59;99797.22;;;9.70;100.00
4346;BME280;2186;49.866;7.986;2023-03-18T03:15:26;99791.31;;;9.62;100.00
4346;BME280;2186;49.866;7.986;2023-03-18T03:17:52;99801.25;;;9.55;100.00
4346;BME280;2186;49.866;7.986;2023-03-18T03:20:19;99804.78;;;9.56;100.00
4346;BME280;2186;49.866;7.986;2023-03-18T03:22:45;99809.53;;;9.72;100.00
4346;BME280;2186;49.866;7.986;2023-03-18T03:25:12;99812.97;;;9.76;100.00
4346;BME280;2186;49.866;7.986;2023-03-18T03:27:40;99808.06;;;9.64;100.00
4346;BME280;2186;49.866;7.986;2023-03-18T03:30:09;99801.06;;;9.61;100.00
4346;BME280;2186;49.866;7.986;2023-03-18T03:32:36;99801.34;;;9.52;100.00
4346;BME280;2186;49.866;7.986;2023-03-18T03:35:05;99798.00;;;9.47;100.00
4346;BME280;2186;49.866;7.986;2023-03-18T03:37:33;99794.50;;;9.17;100.00
4346;BME280;2186;49.866;7.986;2023-03-18T03:40:04;99794.31;;;9.23;100.00
4346;BME280;2186;49.866;7.986;2023-03-18T03:42:31;99798.59;;;9.27;100.00
4346;BME280;2186;49.866;7.986;2023-03-18T03:44:57;99802.34;;;9.22;100.00
4346;BME280;2186;49.866;7.986;2023-03-18T03:47:24;99791.94;;;9.14;100.00
4346;BME280;2186;49.866;7.986;2023-03-18T03:49:51;99803.41;;;9.14;100.00
4346;BME280;2186;49.866;7.986;2023-03-18T03:52:17;99800.63;;;8.91;100.00
4346;BME280;2186;49.866;7.986;2023-03-18T03:54:45;99803.56;;;9.10;100.00
4346;BME280;2186;49.866;7.986;2023-03-18T03:57:11;99806.13;;;9.13;100.00
4346;BME280;2186;49.866;7.986;2023-03-18T03:59:38;99802.47;;;8.87;100.00
4346;BME280;2186;49.866;7.986;2023-03-18T04:02:05;99801.03;;;8.76;100.00
4346;BME280;2186;49.866;7.986;2023-03-18T04:04:31;99805.81;;;8.63;100.00
4346;BME280;2186;49.866;7.986;2023-03-18T04:06:58;99807.13;;;8.48;100.00
4346;BME280;2186;49.866;7.986;2023-03-18T04:09:25;99819.03;;;8.32;100.00
4346;BME280;2186;49.866;7.986;2023-03-18T04:11:52;99819.25;;;8.24;100.00
4346;BME280;2186;49.866;7.986;2023-03-18T04:14:18;99821.31;;;8.13;100.00
4346;BME280;2186;49.866;7.986;2023-03-18T04:16:45;99825.31;;;8.28;100.00
4346;BME280;2186;49.866;7.986;2023-03-18T04:19:11;99827.09;;;8.27;100.00
4346;BME280;2186;49.866;7.986;2023-03-18T04:21:38;99819.78;;;8.03;100.00
4346;BME280;2186;49.866;7.986;2023-03-18T04:24:05;99827.66;;;8.06;100.00
4346;BME280;2186;49.866;7.986;2023-03-18T04:26:31;99818.28;;;7.93;100.00
4346;BME280;2186;49.866;7.986;2023-03-18T04:28:58;99825.94;;;8.03;100.00
4346;BME280;2186;49.866;7.986;2023-03-18T04:31:24;99830.75;;;8.22;100.00
4346;BME280;2186;49.866;7.986;2023-03-18T04:33:50;99837.13;;;8.15;100.00
4346;BME280;2186;49.866;7.986;2023-03-18T04:36:17;99839.50;;;8.25;100.00
4346;BME280;2186;49.866;7.986;2023-03-18T04:38:43;99838.19;;;8.09;100.00
4346;BME280;2186;49.866;7.986;2023-03-18T04:41:10;99840.69;;;8.14;100.00
4346;BME280;2186;49.866;7.986;2023-03-18T04:43:36;99845.00;;;8.18;100.00
4346;BME280;2186;49.866;7.986;2023-03-18T04:46:03;99849.22;;;8.25;100.00
4346;BME280;2186;49.866;7.986;2023-03-18T04:48:29;99857.13;;;8.26;100.00
4346;BME280;2186;49.866;7.986;2023-03-18T04:50:56;99845.72;;;8.24;100.00
4346;BME280;2186;49.866;7.986;2023-03-18T04:53:22;99853.63;;;8.26;100.00
4346;BME280;2186;49.866;7.986;2023-03-18T04:55:49;99850.78;;;8.32;100.00
4346;BME280;2186;49.866;7.986;2023-03-18T04:58:16;99854.44;;;8.28;100.00
4346;BME280;2186;49.866;7.986;2023-03-18T05:00:43;99850.94;;;8.27;100.00
4346;BME280;2186;49.866;7.986;2023-03-18T05:03:10;99850.78;;;8.32;100.00
4346;BME280;2186;49.866;7.986;2023-03-18T05:05:37;99848.97;;;8.36;100.00
4346;BME280;2186;49.866;7.986;2023-03-18T05:08:04;99849.84;;;8.36;100.00
4346;BME280;2186;49.866;7.986;2023-03-18T05:10:31;99850.47;;;8.46;100.00
4346;BME280;2186;49.866;7.986;2023-03-18T05:12:57;99849.06;;;8.31;100.00
4346;BME280;2186;49.866;7.986;2023-03-18T05:15:24;99855.97;;;8.38;100.00
4346;BME280;2186;49.866;7.986;2023-03-18T05:17:51;99848.19;;;8.30;100.00
4346;BME280;2186;49.866;7.986;2023-03-18T05:20:18;99846.53;;;8.26;100.00
4346;BME280;2186;49.866;7.986;2023-03-18T05:22:44;99841.34;;;8.23;100.00
4346;BME280;2186;49.866;7.986;2023-03-18T05:25:11;99847.78;;;8.13;100.00
4346;BME280;2186;49.866;7.986;2023-03-18T05:27:38;99834.06;;;7.97;100.00
4346;BME280;2186;49.866;7.986;2023-03-18T05:30:06;99848.94;;;8.01;100.00
4346;BME280;2186;49.866;7.986;2023-03-18T05:32:34;99842.16;;;8.25;100.00
4346;BME280;2186;49.866;7.986;2023-03-18T05:35:02;99850.81;;;7.98;100.00
4346;BME280;2186;49.866;7.986;2023-03-18T05:37:29;99844.31;;;7.76;100.00
4346;BME280;2186;49.866;7.986;2023-03-18T05:39:55;99856.69;;;7.73;100.00
4346;BME280;2186;49.866;7.986;2023-03-18T05:42:22;99848.06;;;7.65;100.00
4346;BME280;2186;49.866;7.986;2023-03-18T05:44:48;99846.78;;;7.46;100.00
4346;BME280;2186;49.866;7.986;2023-03-18T05:47:15;99853.91;;;7.42;100.00
4346;BME280;2186;49.866;7.986;2023-03-18T05:49:42;99854.22;;;7.29;100.00
4346;BME280;2186;49.866;7.986;2023-03-18T05:52:08;99852.59;;;7.22;100.00
4346;BME280;2186;49.866;7.986;2023-03-18T05:54:35;99856.34;;;7.11;100.00
4346;BME280;2186;49.866;7.986;2023-03-18T05:57:02;99857.38;;;7.04;100.00
4346;BME280;2186;49.866;7.986;2023-03-18T05:59:29;99861.28;;;6.87;100.00
4346;BME280;2186;49.866;7.986;2023-03-18T06:01:56;99859.56;;;6.86;100.00
4346;BME280;2186;49.866;7.986;2023-03-18T06:04:23;99854.13;;;6.92;100.00
4346;BME280;2186;49.866;7.986;2023-03-18T06:06:50;99863.03;;;6.88;100.00
4346;BME280;2186;49.866;7.986;2023-03-18T06:09:16;99855.91;;;6.91;100.00
4346;BME280;2186;49.866;7.986;2023-03-18T06:11:43;99858.53;;;6.91;100.00
4346;BME280;2186;49.866;7.986;2023-03-18T06:14:10;99865.69;;;6.88;100.00
4346;BME280;2186;49.866;7.986;2023-03-18T06:16:38;99859.34;;;6.95;100.00
4346;BME280;2186;49.866;7.986;2023-03-18T06:19:04;99868.19;;;6.94;100.00
4346;BME280;2186;49.866;7.986;2023-03-18T06:21:31;99865.56;;;6.92;100.00
4346;BME280;2186;49.866;7.986;2023-03-18T06:23:59;99868.06;;;7.00;100.00
4346;BME280;2186;49.866;7.986;2023-03-18T06:26:26;99867.94;;;7.06;100.00
4346;BME280;2186;49.866;7.986;2023-03-18T06:28:53;99874.06;;;7.06;100.00
4346;BME280;2186;49.866;7.986;2023-03-18T06:31:19;99876.63;;;7.11;100.00
4346;BME280;2186;49.866;7.986;2023-03-18T06:33:47;99875.56;;;7.20;100.00
4346;BME280;2186;49.866;7.986;2023-03-18T06:36:14;99891.38;;;7.21;100.00
4346;BME280;2186;49.866;7.986;2023-03-18T06:38:42;99888.75;;;7.21;100.00
4346;BME280;2186;49.866;7.986;2023-03-18T06:41:09;99879.91;;;7.22;100.00
4346;BME280;2186;49.866;7.986;2023-03-18T06:43:36;99889.50;;;7.26;100.00
4346;BME280;2186;49.866;7.986;2023-03-18T06:46:03;99892.63;;;7.45;100.00
4346;BME280;2186;49.866;7.986;2023-03-18T06:48:30;99894.28;;;7.49;100.00
4346;BME280;2186;49.866;7.986;2023-03-18T06:50:58;99900.06;;;7.68;100.00
4346;BME280;2186;49.866;7.986;2023-03-18T06:53:24;99898.75;;;7.86;100.00
4346;BME280;2186;49.866;7.986;2023-03-18T06:55:52;99894.97;;;7.94;100.00
4346;BME280;2186;49.866;7.986;2023-03-18T06:58:19;99893.13;;;7.99;100.00
4346;BME280;2186;49.866;7.986;2023-03-18T07:00:45;99904.53;;;8.01;100.00
4346;BME280;2186;49.866;7.986;2023-03-18T07:03:12;99903.50;;;8.07;100.00
4346;BME280;2186;49.866;7.986;2023-03-18T07:05:41;99901.72;;;8.09;100.00
4346;BME280;2186;49.866;7.986;2023-03-18T07:08:08;99907.47;;;8.25;100.00
4346;BME280;2186;49.866;7.986;2023-03-18T07:10:34;99911.63;;;8.37;100.00
4346;BME280;2186;49.866;7.986;2023-03-18T07:13:01;99909.38;;;8.55;100.00
4346;BME280;2186;49.866;7.986;2023-03-18T07:15:27;99912.75;;;8.60;100.00
4346;BME280;2186;49.866;7.986;2023-03-18T07:17:54;99915.84;;;8.78;100.00
4346;BME280;2186;49.866;7.986;2023-03-18T07:20:21;99918.50;;;9.09;100.00
4346;BME280;2186;49.866;7.986;2023-03-18T07:22:48;99906.50;;;8.96;100.00
4346;BME280;2186;49.866;7.986;2023-03-18T07:25:14;99913.41;;;9.01;100.00
4346;BME280;2186;49.866;7.986;2023-03-18T07:27:41;99913.50;;;9.28;100.00
4346;BME280;2186;49.866;7.986;2023-03-18T07:30:08;99919.84;;;9.24;100.00
4346;BME280;2186;49.866;7.986;2023-03-18T07:32:36;99924.28;;;9.53;100.00
4346;BME280;2186;49.866;7.986;2023-03-18T07:35:04;99921.75;;;9.48;100.00
4346;BME280;2186;49.866;7.986;2023-03-18T07:37:31;99908.84;;;9.65;100.00
4346;BME280;2186;49.866;7.986;2023-03-18T07:39:58;99912.16;;;9.73;100.00
4346;BME280;2186;49.866;7.986;2023-03-18T07:42:25;99913.13;;;9.69;100.00
4346;BME280;2186;49.866;7.986;2023-03-18T07:44:52;99910.47;;;9.69;100.00
4346;BME280;2186;49.866;7.986;2023-03-18T07:47:18;99912.84;;;9.78;100.00
4346;BME280;2186;49.866;7.986;2023-03-18T07:49:46;99920.41;;;10.19;100.00
4346;BME280;2186;49.866;7.986;2023-03-18T07:52:12;99909.03;;;10.15;100.00
4346;BME280;2186;49.866;7.986;2023-03-18T07:54:39;99923.56;;;10.58;100.00
4346;BME280;2186;49.866;7.986;2023-03-18T07:57:06;99917.94;;;10.65;100.00
4346;BME280;2186;49.866;7.986;2023-03-18T07:59:33;99913.56;;;10.64;100.00
4346;BME280;2186;49.866;7.986;2023-03-18T08:01:59;99914.44;;;10.65;100.00
4346;BME280;2186;49.866;7.986;2023-03-18T08:04:26;99915.47;;;10.86;100.00
4346;BME280;2186;49.866;7.986;2023-03-18T08:06:53;99913.69;;;10.86;100.00
4346;BME280;2186;49.866;7.986;2023-03-18T08:09:20;99911.03;;;11.10;100.00
4346;BME280;2186;49.866;7.986;2023-03-18T08:11:47;99920.88;;;11.31;100.00
4346;BME280;2186;49.866;7.986;2023-03-18T08:14:13;99923.72;;;11.26;100.00
4346;BME280;2186;49.866;7.986;2023-03-18T08:16:41;99919.03;;;11.33;100.00
4346;BME280;2186;49.866;7.986;2023-03-18T08:19:07;99917.53;;;11.49;100.00
4346;BME280;2186;49.866;7.986;2023-03-18T08:21:34;99909.88;;;11.64;100.00
4346;BME280;2186;49.866;7.986;2023-03-18T08:24:01;99914.16;;;11.68;100.00
4346;BME280;2186;49.866;7.986;2023-03-18T08:26:27;99913.72;;;11.78;100.00
4346;BME280;2186;49.866;7.986;2023-03-18T08:28:54;99912.31;;;11.93;100.00
4346;BME280;2186;49.866;7.986;2023-03-18T08:31:20;99921.78;;;12.22;100.00
4346;BME280;2186;49.866;7.986;2023-03-18T08:33:47;99921.72;;;12.44;100.00
4346;BME280;2186;49.866;7.986;2023-03-18T08:36:15;99919.47;;;12.55;100.00
4346;BME280;2186;49.866;7.986;2023-03-18T08:38:41;99924.22;;;12.49;100.00
4346;BME280;2186;49.866;7.986;2023-03-18T08:41:08;99925.22;;;12.66;100.00
4346;BME280;2186;49.866;7.986;2023-03-18T08:43:35;99927.38;;;12.79;96.89
4346;BME280;2186;49.866;7.986;2023-03-18T08:46:05;99933.44;;;12.82;96.61
4346;BME280;2186;49.866;7.986;2023-03-18T08:48:31;99934.69;;;12.73;91.88
4346;BME280;2186;49.866;7.986;2023-03-18T08:50:58;99933.28;;;12.85;92.60
4346;BME280;2186;49.866;7.986;2023-03-18T08:53:24;99940.28;;;13.08;92.67
4346;BME280;2186;49.866;7.986;2023-03-18T08:55:51;99938.69;;;13.04;90.08
4346;BME280;2186;49.866;7.986;2023-03-18T08:58:17;99938.56;;;13.07;92.28
4346;BME280;2186;49.866;7.986;2023-03-18T09:00:44;99931.06;;;13.36;89.20
4346;BME280;2186;49.866;7.986;2023-03-18T09:03:11;99936.81;;;13.26;89.33
4346;BME280;2186;49.866;7.986;2023-03-18T09:05:38;99932.28;;;13.28;87.76
4346;BME280;2186;49.866;7.986;2023-03-18T09:08:05;99927.63;;;13.33;84.34
4346;BME280;2186;49.866;7.986;2023-03-18T09:10:32;99938.97;;;13.18;85.72
4346;BME280;2186;49.866;7.986;2023-03-18T09:12:58;99931.72;;;13.41;86.57
4346;BME280;2186;49.866;7.986;2023-03-18T09:15:26;99925.41;;;13.62;86.38
4346;BME280;2186;49.866;7.986;2023-03-18T09:17:52;99918.59;;;13.74;85.49
4346;BME280;2186;49.866;7.986;2023-03-18T09:20:37;99917.44;;;13.79;88.87
4346;BME280;2186;49.866;7.986;2023-03-18T09:23:04;99916.09;;;14.07;86.85
4346;BME280;2186;49.866;7.986;2023-03-18T09:25:30;99913.94;;;13.96;85.89
4346;BME280;2186;49.866;7.986;2023-03-18T09:27:57;99909.34;;;14.00;87.27
4346;BME280;2186;49.866;7.986;2023-03-18T09:30:24;99901.81;;;14.08;87.53
4346;BME280;2186;49.866;7.986;2023-03-18T09:32:52;99912.28;;;14.12;88.49
4346;BME280;2186;49.866;7.986;2023-03-18T09:35:19;99910.16;;;14.19;86.47
4346;BME280;2186;49.866;7.986;2023-03-18T09:37:45;99912.22;;;14.31;84.70
4346;BME280;2186;49.866;7.986;2023-03-18T09:40:34;99912.50;;;14.08;87.94
4346;BME280;2186;49.866;7.986;2023-03-18T09:48:39;99922.53;;;14.39;86.54
4346;BME280;2186;49.866;7.986;2023-03-18T09:53:58;99911.03;;;14.37;84.02
4346;BME280;2186;49.866;7.986;2023-03-18T09:56:31;99913.13;;;14.66;83.15
4346;BME280;2186;49.866;7.986;2023-03-18T09:59:05;99913.06;;;14.85;81.98
4346;BME280;2186;49.866;7.986;2023-03-18T10:01:35;99914.06;;;14.65;82.87
4346;BME280;2186;49.866;7.986;2023-03-18T10:06:52;99909.44;;;15.36;78.94
4346;BME280;2186;49.866;7.986;2023-03-18T10:09:33;99911.00;;;15.40;78.46
4346;BME280;2186;49.866;7.986;2023-03-18T10:12:31;99910.88;;;15.26;77.73
4346;BME280;2186;49.866;7.986;2023-03-18T10:15:14;99904.09;;;15.52;76.25
4346;BME280;2186;49.866;7.986;2023-03-18T10:17:47;99904.19;;;15.51;74.28
4346;BME280;2186;49.866;7.986;2023-03-18T10:23:09;99900.41;;;15.70;77.22
4346;BME280;2186;49.866;7.986;2023-03-18T10:25:44;99904.72;;;15.89;77.92
4346;BME280;2186;49.866;7.986;2023-03-18T10:28:26;99906.13;;;15.64;71.69
4346;BME280;2186;49.866;7.986;2023-03-18T10:34:05;99908.06;;;16.40;72.44
4346;BME280;2186;49.866;7.986;2023-03-18T10:39:26;99910.41;;;16.46;72.21
4346;BME280;2186;49.866;7.986;2023-03-18T10:41:55;99912.75;;;16.36;71.85
4346;BME280;2186;49.866;7.986;2023-03-18T10:44:27;99912.44;;;16.11;71.34
4346;BME280;2186;49.866;7.986;2023-03-18T10:47:02;99906.13;;;16.42;71.86
4346;BME280;2186;49.866;7.986;2023-03-18T10:49:38;99899.81;;;16.43;70.19
4346;BME280;2186;49.866;7.986;2023-03-18T10:52:28;99900.19;;;16.37;70.66
4346;BME280;2186;49.866;7.986;2023-03-18T10:54:56;99900.72;;;16.57;71.07
4346;BME280;2186;49.866;7.986;2023-03-18T10:57:22;99905.19;;;16.43;71.61
4346;BME280;2186;49.866;7.986;2023-03-18T10:59:50;99906.09;;;16.27;68.59
4346;BME280;2186;49.866;7.986;2023-03-18T11:02:35;99912.94;;;16.02;70.15
4346;BME280;2186;49.866;7.986;2023-03-18T11:08:03;99910.91;;;16.67;69.29
4346;BME280;2186;49.866;7.986;2023-03-18T11:10:35;99900.16;;;16.52;67.24
4346;BME280;2186;49.866;7.986;2023-03-18T11:13:04;99912.81;;;16.80;68.33
4346;BME280;2186;49.866;7.986;2023-03-18T11:15:41;99908.00;;;16.55;67.05
4346;BME280;2186;49.866;7.986;2023-03-18T11:18:14;99893.69;;;16.71;67.86
4346;BME280;2186;49.866;7.986;2023-03-18T11:20:53;99904.50;;;16.39;67.00
4346;BME280;2186;49.866;7.986;2023-03-18T11:23:36;99907.91;;;16.27;66.98
4346;BME280;2186;49.866;7.986;2023-03-18T11:26:25;99902.22;;;16.17;67.36
4346;BME280;2186;49.866;7.986;2023-03-18T11:29:25;99899.38;;;16.50;66.70
4346;BME280;2186;49.866;7.986;2023-03-18T11:31:55;99897.50;;;16.37;66.71
4346;BME280;2186;49.866;7.986;2023-03-18T11:34:25;99899.19;;;16.23;67.00
4346;BME280;2186;49.866;7.986;2023-03-18T11:36:57;99891.50;;;16.17;68.65
4346;BME280;2186;49.866;7.986;2023-03-18T11:39:28;99887.53;;;16.09;68.30
4346;BME280;2186;49.866;7.986;2023-03-18T11:41:57;99886.81;;;16.21;68.34
4346;BME280;2186;49.866;7.986;2023-03-18T11:44:30;99871.88;;;16.47;66.54
4346;BME280;2186;49.866;7.986;2023-03-18T11:47:07;99884.44;;;16.76;65.70
4346;BME280;2186;49.866;7.986;2023-03-18T11:49:36;99880.69;;;16.49;64.41
4346;BME280;2186;49.866;7.986;2023-03-18T11:52:16;99876.94;;;16.67;63.01
4346;BME280;2186;49.866;7.986;2023-03-18T11:58:06;99874.47;;;16.78;64.61
4346;BME280;2186;49.866;7.986;2023-03-18T12:04:21;99872.38;;;16.98;63.92
4346;BME280;2186;49.866;7.986;2023-03-18T12:09:49;99868.56;;;17.16;64.91
4346;BME280;2186;49.866;7.986;2023-03-18T12:15:05;99864.59;;;17.50;59.56
4346;BME280;2186;49.866;7.986;2023-03-18T12:17:45;99861.13;;;17.62;60.98
4346;BME280;2186;49.866;7.986;2023-03-18T12:23:02;99862.81;;;17.92;59.30
4346;BME280;2186;49.866;7.986;2023-03-18T12:28:12;99857.66;;;17.60;57.95
4346;BME280;2186;49.866;7.986;2023-03-18T12:31:11;99862.34;;;17.85;59.54
4346;BME280;2186;49.866;7.986;2023-03-18T12:39:50;99859.78;;;17.84;55.84
4346;BME280;2186;49.866;7.986;2023-03-18T12:45:00;99854.53;;;18.22;54.04
4346;BME280;2186;49.866;7.986;2023-03-18T12:52:47;99845.28;;;18.26;52.43
4346;BME280;2186;49.866;7.986;2023-03-18T12:55:25;99859.03;;;18.61;52.51
4346;BME280;2186;49.866;7.986;2023-03-18T13:01:13;99846.72;;;18.84;51.40
4346;BME280;2186;49.866;7.986;2023-03-18T13:03:47;99836.91;;;18.70;50.10
4346;BME280;2186;49.866;7.986;2023-03-18T13:06:23;99831.94;;;18.89;50.55
4346;BME280;2186;49.866;7.986;2023-03-18T13:09:24;99837.31;;;19.02;50.63
4346;BME280;2186;49.866;7.986;2023-03-18T13:12:13;99829.47;;;19.12;51.00
4346;BME280;2186;49.866;7.986;2023-03-18T13:14:56;99826.53;;;19.28;50.33
4346;BME280;2186;49.866;7.986;2023-03-18T13:17:30;99829.00;;;19.18;49.01
4346;BME280;2186;49.866;7.986;2023-03-18T13:19:59;99827.06;;;19.33;49.71
4346;BME280;2186;49.866;7.986;2023-03-18T13:42:09;99827.47;;;18.63;50.52
4346;BME280;2186;49.866;7.986;2023-03-18T13:44:46;99836.50;;;18.37;49.54
4346;BME280;2186;49.866;7.986;2023-03-18T13:47:17;99828.47;;;18.10;49.56
4346;BME280;2186;49.866;7.986;2023-03-18T13:49:45;99826.53;;;18.12;49.74
4346;BME280;2186;49.866;7.986;2023-03-18T13:52:31;99824.91;;;18.22;55.61
4346;BME280;2186;49.866;7.986;2023-03-18T13:55:04;99818.31;;;18.40;51.90
4346;BME280;2186;49.866;7.986;2023-03-18T13:57:44;99817.59;;;18.11;52.68
4346;BME280;2186;49.866;7.986;2023-03-18T14:00:33;99807.69;;;18.51;53.30
4346;BME280;2186;49.866;7.986;2023-03-18T14:05:34;99810.16;;;18.54;52.94
4346;BME280;2186;49.866;7.986;2023-03-18T14:08:31;99805.56;;;18.82;52.37
4346;BME280;2186;49.866;7.986;2023-03-18T14:13:53;99800.22;;;18.42;50.18
4346;BME280;2186;49.866;7.986;2023-03-18T14:16:27;99800.72;;;18.34;52.92
4346;BME280;2186;49.866;7.986;2023-03-18T14:19:18;99799.16;;;18.05;53.41
4346;BME280;2186;49.866;7.986;2023-03-18T14:21:51;99803.72;;;18.17;54.55
4346;BME280;2186;49.866;7.986;2023-03-18T14:27:13;99800.69;;;18.09;52.13
4346;BME280;2186;49.866;7.986;2023-03-18T14:29:43;99801.06;;;18.30;51.42
4346;BME280;2186;49.866;7.986;2023-03-18T14:40:35;99782.94;;;18.72;51.38
4346;BME280;2186;49.866;7.986;2023-03-18T14:43:36;99790.59;;;18.78;51.62
4346;BME280;2186;49.866;7.986;2023-03-18T14:46:15;99786.72;;;18.69;53.08
4346;BME280;2186;49.866;7.986;2023-03-18T14:48:42;99777.41;;;18.60;52.11
4346;BME280;2186;49.866;7.986;2023-03-18T14:51:20;99782.94;;;18.72;52.26
4346;BME280;2186;49.866;7.986;2023-03-18T14:54:17;99780.97;;;18.61;54.33
4346;BME280;2186;49.866;7.986;2023-03-18T14:56:54;99773.53;;;18.52;54.26
4346;BME280;2186;49.866;7.986;2023-03-18T14:59:24;99770.72;;;18.28;55.04
4346;BME280;2186;49.866;7.986;2023-03-18T15:01:50;99774.50;;;18.51;55.35
4346;BME280;2186;49.866;7.986;2023-03-18T15:04:23;99778.75;;;18.68;53.23
4346;BME280;2186;49.866;7.986;2023-03-18T15:06:51;99772.28;;;18.70;54.75
4346;BME280;2186;49.866;7.986;2023-03-18T15:09:24;99777.31;;;18.75;51.77
4346;BME280;2186;49.866;7.986;2023-03-18T15:11:53;99765.09;;;18.31;50.09
4346;BME280;2186;49.866;7.986;2023-03-18T15:14:25;99771.03;;;18.36;51.03
4346;BME280;2186;49.866;7.986;2023-03-18T15:17:00;99768.47;;;18.47;50.75